Ponta Pora, Brazil
Current Conditions -  °F | °C
As of 9:00 AM on Monday 20 Oct 2014 (Local Time) from SBPP Reporting Station
Thunderstorm Thunderstorm  
Wind Chill: 66°   Ceiling: Unl
Heat Index: 66°   Visibility: 0.5mi
Dew Point: 66°   Wind: 12mph
Humidity: 100%   Direction: 60°ENE
Pressure: 30.09"   Gusts: NA
Location:  22.53°S, 55.73°W
Report Text: SBPP 201300Z 06010KT 0800 +TSRA VV000 //////CB 19/19 Q1019
Loading
Personal Weather Stations






























Interactive Weather Map
Tropical Storm Tracking
New forecast layout! Learn more

10-Day Weather Forecast

Advertisements
Track Severe Weather on mobile